Time;durP1;ratioP1;P1;durP2;ratioP2;P2;SDS_P1;SDS_P2;PMS_P1;PMS_P2;Temp;Humidity;BMP_temperature;BMP_pressure;BME280_temperature;BME280_humidity;BME280_pressure;Samples;Min_cycle;Max_cycle;Signal;HPM_P1;HPM_P2
2021/11/06 00:00:50;;;;;;;24.27;12.45;;;;;;;6.37;86.94;102558.22;5071042;28;20112;-62
2021/11/06 00:03:17;;;;;;;26.38;13.55;;;;;;;6.33;87.16;102556.66;5063986;28;20057;-62
2021/11/06 00:05:43;;;;;;;29.08;13.88;;;;;;;6.26;87.23;102558.81;5065180;28;20052;-62
2021/11/06 00:08:10;;;;;;;29.10;13.77;;;;;;;6.28;87.22;102558.72;5059750;28;20048;-61
2021/11/06 00:10:37;;;;;;;30.88;15.68;;;;;;;6.36;87.89;102566.22;5060279;28;20051;-61
2021/11/06 00:13:04;;;;;;;36.28;15.57;;;;;;;6.46;88.77;102560.38;5074467;28;20047;-61
2021/11/06 00:15:31;;;;;;;29.48;14.32;;;;;;;6.37;88.23;102563.50;5060375;28;20516;-61
2021/11/06 00:17:58;;;;;;;31.00;14.60;;;;;;;6.30;87.21;102562.13;5075172;28;20040;-61
2021/11/06 00:20:25;;;;;;;29.08;14.35;;;;;;;6.23;87.44;102558.94;5073726;28;20046;-61
2021/11/06 00:22:51;;;;;;;30.40;14.13;;;;;;;6.25;86.89;102561.50;5068213;28;20052;-63
2021/11/06 00:25:19;;;;;;;31.58;13.88;;;;;;;6.21;87.18;102562.63;5066755;28;20045;-61
2021/11/06 00:27:46;;;;;;;29.30;14.23;;;;;;;6.11;87.27;102557.84;5074563;28;20040;-61
2021/11/06 00:30:14;;;;;;;28.05;13.30;;;;;;;6.07;87.27;102564.16;5073583;28;20064;-61
2021/11/06 00:32:42;;;;;;;28.63;14.90;;;;;;;6.10;87.28;102574.56;5074787;28;20059;-61
2021/11/06 00:35:10;;;;;;;29.05;14.27;;;;;;;6.15;88.13;102566.44;5072080;28;20435;-62
2021/11/06 00:37:38;;;;;;;29.30;13.98;;;;;;;6.19;87.88;102567.97;5074576;28;20032;-61
2021/11/06 00:40:07;;;;;;;25.55;14.18;;;;;;;6.27;87.75;102570.19;5074117;28;20493;-62
2021/11/06 00:42:34;;;;;;;28.92;13.35;;;;;;;6.21;87.36;102566.09;5074472;28;20421;-61
2021/11/06 00:45:02;;;;;;;29.38;14.25;;;;;;;6.19;87.60;102562.69;5074168;28;20101;-61
2021/11/06 00:47:29;;;;;;;27.65;13.45;;;;;;;6.12;87.29;102559.53;5074435;28;20040;-61
2021/11/06 00:49:56;;;;;;;26.17;13.73;;;;;;;6.11;86.96;102563.09;5073068;28;20048;-61
2021/11/06 00:52:23;;;;;;;30.90;13.95;;;;;;;6.10;86.85;102558.75;5074289;28;20043;-61
2021/11/06 00:54:49;;;;;;;26.60;13.30;;;;;;;6.08;87.42;102559.78;5074203;28;20497;-62
2021/11/06 00:57:16;;;;;;;27.02;14.25;;;;;;;6.08;87.11;102567.69;5072986;28;20041;-61
2021/11/06 00:59:43;;;;;;;27.90;12.95;;;;;;;6.05;86.93;102571.31;5072796;28;20041;-61
2021/11/06 01:02:10;;;;;;;32.22;13.20;;;;;;;6.09;87.24;102567.59;5073991;28;20048;-61
2021/11/06 01:04:37;;;;;;;29.23;13.70;;;;;;;6.07;86.99;102577.34;5072014;28;20397;-62
2021/11/06 01:07:04;;;;;;;29.50;13.38;;;;;;;6.03;87.34;102575.81;5072561;28;20098;-61
2021/11/06 01:09:31;;;;;;;24.90;12.65;;;;;;;6.00;87.02;102577.75;5074287;28;20046;-62
2021/11/06 01:11:58;;;;;;;30.65;13.00;;;;;;;5.92;87.12;102571.06;5073908;28;20056;-62
2021/11/06 01:14:25;;;;;;;29.40;12.95;;;;;;;5.96;87.29;102590.22;5073678;28;20032;-62
2021/11/06 01:16:51;;;;;;;31.42;12.75;;;;;;;5.92;86.76;102583.38;5073943;28;20421;-62
2021/11/06 01:19:18;;;;;;;35.08;13.63;;;;;;;5.92;86.92;102578.97;5074303;28;20032;-62
2021/11/06 01:21:45;;;;;;;34.13;13.45;;;;;;;5.92;86.81;102576.31;5073531;28;20036;-61
2021/11/06 01:24:12;;;;;;;32.10;12.32;;;;;;;6.04;87.48;102576.66;5072349;28;20048;-62
2021/11/06 01:26:38;;;;;;;29.52;13.02;;;;;;;6.06;87.52;102586.19;5073384;28;20044;-61
2021/11/06 01:29:05;;;;;;;33.08;12.30;;;;;;;5.94;86.69;102581.53;5072324;28;20075;-61
2021/11/06 01:31:32;;;;;;;36.35;13.45;;;;;;;6.01;87.46;102590.00;5073547;28;20097;-62
2021/11/06 01:33:59;;;;;;;36.20;12.30;;;;;;;6.04;87.34;102588.06;5070489;28;20090;-61
2021/11/06 01:36:26;;;;;;;27.40;11.80;;;;;;;5.96;87.21;102580.53;5073237;28;20044;-61
2021/11/06 01:38:53;;;;;;;33.95;13.32;;;;;;;5.94;86.58;102574.47;5073351;28;20557;-61
2021/11/06 01:41:20;;;;;;;28.92;12.50;;;;;;;5.89;86.78;102575.63;5073161;28;20047;-61
2021/11/06 01:43:48;;;;;;;34.67;12.13;;;;;;;5.89;87.07;102579.09;5073224;28;20041;-61
2021/11/06 01:46:15;;;;;;;34.28;13.45;;;;;;;5.81;86.63;102578.66;5072310;28;20397;-61
2021/11/06 01:48:43;;;;;;;32.80;11.88;;;;;;;5.76;87.23;102576.25;5072764;28;20048;-61
2021/11/06 01:51:10;;;;;;;28.98;12.23;;;;;;;5.74;87.00;102579.91;5073459;28;20051;-61
2021/11/06 01:53:36;;;;;;;29.73;12.65;;;;;;;5.72;87.07;102585.25;5072964;28;20040;-61
2021/11/06 01:56:04;;;;;;;33.05;13.10;;;;;;;5.77;88.03;102580.59;5072822;28;20056;-61
2021/11/06 01:58:31;;;;;;;33.80;13.02;;;;;;;5.73;87.15;102588.72;5072851;28;20048;-61
2021/11/06 02:00:59;;;;;;;31.33;11.98;;;;;;;5.65;87.31;102577.75;5064924;28;20036;-62
2021/11/06 02:03:26;;;;;;;32.08;12.90;;;;;;;5.61;86.81;102584.94;5067989;28;20058;-63
2021/11/06 02:05:53;;;;;;;32.20;12.25;;;;;;;5.63;86.53;102582.22;5069573;28;20033;-63
2021/11/06 02:08:21;;;;;;;28.35;12.00;;;;;;;5.60;86.94;102588.50;5071872;28;20054;-61
2021/11/06 02:10:48;;;;;;;31.08;12.02;;;;;;;5.57;86.95;102593.94;5072383;28;20052;-62
2021/11/06 02:13:15;;;;;;;33.78;12.52;;;;;;;5.55;86.71;102582.63;5072428;28;20041;-62
2021/11/06 02:15:42;;;;;;;28.35;11.85;;;;;;;5.51;87.16;102581.06;5058307;28;20048;-62
2021/11/06 02:18:10;;;;;;;30.02;12.43;;;;;;;5.49;86.44;102581.13;5072623;28;20132;-61
2021/11/06 02:20:36;;;;;;;30.45;11.73;;;;;;;5.46;86.56;102585.72;5072770;28;20048;-62
2021/11/06 02:23:04;;;;;;;27.10;11.85;;;;;;;5.44;86.64;102587.53;5056911;28;20041;-63
2021/11/06 02:25:31;;;;;;;35.50;12.75;;;;;;;5.42;86.92;102586.78;5072585;28;20102;-62
2021/11/06 02:27:58;;;;;;;35.60;12.82;;;;;;;5.35;86.84;102580.97;5071099;28;20052;-62
2021/11/06 02:30:24;;;;;;;33.75;11.88;;;;;;;5.36;86.76;102577.41;5072350;28;20036;-62
2021/11/06 02:32:52;;;;;;;34.03;12.68;;;;;;;5.35;86.48;102573.91;5051474;28;20379;-61
2021/11/06 02:35:20;;;;;;;31.45;12.57;;;;;;;5.33;87.33;102582.81;5067604;28;20098;-61
2021/11/06 02:37:47;;;;;;;31.75;12.65;;;;;;;5.33;86.43;102577.53;5069587;28;20041;-62
2021/11/06 02:40:15;;;;;;;27.13;11.77;;;;;;;5.27;86.26;102583.97;5073022;28;20041;-62
2021/11/06 02:42:43;;;;;;;31.83;12.07;;;;;;;5.22;86.76;102579.84;5072224;28;20047;-62
2021/11/06 02:45:11;;;;;;;30.38;12.70;;;;;;;5.24;87.09;102575.34;5070960;28;20040;-62
2021/11/06 02:47:37;;;;;;;40.88;12.27;;;;;;;5.18;86.69;102573.88;5072565;28;20048;-62
2021/11/06 02:50:05;;;;;;;34.35;12.93;;;;;;;5.14;86.96;102581.06;5071880;28;20397;-61
2021/11/06 02:52:32;;;;;;;28.88;12.85;;;;;;;5.19;87.57;102579.06;5072284;28;20041;-61
2021/11/06 02:54:58;;;;;;;29.42;12.05;;;;;;;5.27;88.27;102575.22;5072201;28;20037;-61
2021/11/06 02:57:25;;;;;;;33.33;13.57;;;;;;;5.25;88.08;102574.44;5070395;28;20469;-62
2021/11/06 02:59:54;;;;;;;34.35;12.73;;;;;;;5.26;87.92;102571.75;5070973;28;20490;-61
2021/11/06 03:02:20;;;;;;;37.53;13.88;;;;;;;5.26;87.95;102568.28;5071960;28;20053;-61
2021/11/06 03:04:47;;;;;;;46.05;14.25;;;;;;;5.33;88.49;102575.78;5070202;28;20093;-62
2021/11/06 03:07:14;;;;;;;44.83;13.88;;;;;;;5.30;88.03;102575.06;5071900;28;20044;-61
2021/11/06 03:09:42;;;;;;;42.13;14.82;;;;;;;5.28;87.97;102577.78;5070806;28;20398;-62
2021/11/06 03:12:11;;;;;;;36.42;13.98;;;;;;;5.30;87.86;102569.81;5070461;28;20097;-61
2021/11/06 03:14:38;;;;;;;40.45;13.95;;;;;;;5.35;88.29;102567.81;5063759;28;20037;-62
2021/11/06 03:17:05;;;;;;;43.25;14.98;;;;;;;5.27;88.17;102567.31;5066465;28;20048;-61
2021/11/06 03:19:32;;;;;;;49.28;15.32;;;;;;;5.23;87.97;102566.63;5072014;28;20043;-62
2021/11/06 03:21:59;;;;;;;37.03;13.65;;;;;;;5.22;87.95;102569.31;5071923;28;20047;-61
2021/11/06 03:24:26;;;;;;;34.38;13.30;;;;;;;5.23;88.21;102565.78;5070436;28;20067;-61
2021/11/06 03:26:53;;;;;;;42.75;14.23;;;;;;;5.21;88.34;102565.84;5071693;28;20041;-61
2021/11/06 03:29:20;;;;;;;37.60;13.93;;;;;;;5.19;88.09;102563.28;5072231;28;20048;-61
2021/11/06 03:31:47;;;;;;;35.38;15.23;;;;;;;5.24;87.43;102573.59;5071065;28;20052;-61
2021/11/06 03:34:13;;;;;;;40.45;14.48;;;;;;;5.26;87.80;102574.38;5068951;28;20436;-61
2021/11/06 03:36:41;;;;;;;40.53;15.40;;;;;;;5.23;87.85;102569.25;5071997;28;20049;-61
2021/11/06 03:39:08;;;;;;;34.92;15.02;;;;;;;5.22;87.96;102572.81;5070788;28;20110;-61
2021/11/06 03:41:35;;;;;;;35.75;14.10;;;;;;;5.28;87.69;102582.19;5072157;28;20048;-61
2021/11/06 03:44:03;;;;;;;35.17;14.32;;;;;;;5.29;87.36;102582.09;5071004;28;20067;-61
2021/11/06 03:46:29;;;;;;;44.63;15.00;;;;;;;5.41;86.79;102585.94;5072085;28;20049;-61
2021/11/06 03:48:56;;;;;;;34.63;13.98;;;;;;;5.35;86.57;102575.72;5072144;28;20048;-61
2021/11/06 03:51:23;;;;;;;39.22;14.15;;;;;;;5.29;87.20;102576.00;5071889;28;20053;-61
2021/11/06 03:53:50;;;;;;;40.00;14.57;;;;;;;5.27;87.56;102577.84;5072152;28;20045;-61
2021/11/06 03:56:18;;;;;;;35.88;14.30;;;;;;;5.24;87.31;102578.88;5072152;28;20059;-61
2021/11/06 03:58:44;;;;;;;33.92;14.15;;;;;;;5.30;86.88;102577.72;5070796;28;20056;-61
2021/11/06 04:01:11;;;;;;;30.85;13.32;;;;;;;5.23;86.90;102579.78;5069443;28;20049;-61
2021/11/06 04:03:38;;;;;;;33.55;14.02;;;;;;;5.19;87.14;102579.06;5059331;28;20574;-61
2021/11/06 04:06:05;;;;;;;36.55;13.93;;;;;;;5.16;87.37;102581.84;5053017;28;20033;-61
2021/11/06 04:08:31;;;;;;;32.88;13.52;;;;;;;5.15;87.29;102577.53;5065107;28;20049;-61
2021/11/06 04:10:58;;;;;;;30.27;12.77;;;;;;;5.15;87.46;102577.53;5059665;28;20045;-61
2021/11/06 04:13:25;;;;;;;34.13;14.18;;;;;;;5.13;87.34;102582.00;5074805;28;20040;-61
2021/11/06 04:15:52;;;;;;;30.33;13.65;;;;;;;5.13;87.02;102581.13;5058454;28;20493;-61
2021/11/06 04:18:18;;;;;;;27.55;13.15;;;;;;;5.27;86.24;102583.13;5075139;28;20036;-61
2021/11/06 04:20:45;;;;;;;30.77;12.93;;;;;;;5.18;86.67;102585.28;5073360;28;20047;-62
2021/11/06 04:23:13;;;;;;;28.88;12.20;;;;;;;5.17;86.13;102585.34;5066907;28;20044;-61
2021/11/06 04:25:39;;;;;;;35.17;14.32;;;;;;;5.18;86.79;102585.28;5066391;28;20405;-61
2021/11/06 04:28:06;;;;;;;26.38;13.32;;;;;;;5.21;86.39;102583.44;5074572;28;20086;-61
2021/11/06 04:30:33;;;;;;;28.83;12.98;;;;;;;5.19;86.83;102586.13;5073520;28;20044;-61
2021/11/06 04:33:00;;;;;;;31.98;13.10;;;;;;;5.13;86.13;102584.63;5073129;28;20481;-61
2021/11/06 04:35:26;;;;;;;33.60;13.40;;;;;;;5.18;86.39;102574.75;5074059;28;20048;-61
2021/11/06 04:37:56;;;;;;;26.83;13.02;;;;;;;5.07;86.94;102582.28;5074749;28;20076;-61
2021/11/06 04:40:23;;;;;;;35.03;12.85;;;;;;;5.05;86.26;102581.50;5065157;28;20098;-61
2021/11/06 04:42:50;;;;;;;31.13;13.23;;;;;;;5.04;86.58;102584.22;5067420;28;20452;-61
2021/11/06 04:45:16;;;;;;;30.10;13.45;;;;;;;5.00;87.11;102597.53;5074257;28;20033;-61
2021/11/06 04:47:43;;;;;;;29.88;12.50;;;;;;;4.96;86.73;102588.06;5074549;28;20053;-62
2021/11/06 04:50:11;;;;;;;30.45;13.10;;;;;;;4.97;87.01;102583.66;5073818;28;20197;-61
2021/11/06 04:52:38;;;;;;;28.05;12.88;;;;;;;4.91;87.08;102583.94;5074305;28;20447;-61
2021/11/06 04:55:09;;;;;;;30.67;13.43;;;;;;;4.92;86.69;102583.88;5053346;28;20037;-62
2021/11/06 04:57:35;;;;;;;29.17;13.38;;;;;;;4.95;86.98;102577.63;5068319;28;20051;-61
2021/11/06 05:00:05;;;;;;;29.17;13.18;;;;;;;4.92;86.81;102570.72;5074362;28;20511;-61
2021/11/06 05:02:32;;;;;;;28.90;13.00;;;;;;;4.89;86.59;102570.84;5073778;28;20059;-61
2021/11/06 05:04:59;;;;;;;30.98;12.40;;;;;;;4.93;87.12;102577.69;5071775;28;20382;-61
2021/11/06 05:07:26;;;;;;;33.38;13.85;;;;;;;4.90;86.78;102585.72;5072972;28;20036;-61
2021/11/06 05:09:53;;;;;;;29.52;13.43;;;;;;;4.88;86.58;102576.22;5072745;28;20504;-61
2021/11/06 05:12:20;;;;;;;30.65;13.82;;;;;;;4.88;86.75;102584.09;5073852;28;20037;-61
2021/11/06 05:14:48;;;;;;;25.48;12.65;;;;;;;4.90;86.96;102582.25;5073945;28;20055;-61
2021/11/06 05:17:16;;;;;;;32.15;12.63;;;;;;;4.89;86.38;102584.00;5073487;28;20037;-61
2021/11/06 05:19:43;;;;;;;30.25;13.27;;;;;;;4.94;86.46;102578.53;5073796;28;20036;-61
2021/11/06 05:22:10;;;;;;;29.90;13.05;;;;;;;4.92;86.47;102581.25;5072825;28;20044;-61
2021/11/06 05:24:37;;;;;;;37.92;13.15;;;;;;;4.92;87.15;102569.88;5072671;28;20493;-61
2021/11/06 05:27:06;;;;;;;30.92;13.27;;;;;;;4.89;86.79;102572.63;5072482;28;20040;-61
2021/11/06 05:29:36;;;;;;;28.80;12.75;;;;;;;4.91;86.56;102573.41;5072224;28;20501;-62
2021/11/06 05:32:03;;;;;;;28.85;12.77;;;;;;;4.90;86.49;102569.94;5070836;28;20040;-61
2021/11/06 05:34:30;;;;;;;31.88;13.43;;;;;;;4.95;86.08;102562.69;5072624;28;20493;-61
2021/11/06 05:36:57;;;;;;;31.42;13.57;;;;;;;4.88;86.67;102563.91;5074034;28;20055;-61
2021/11/06 05:39:25;;;;;;;27.42;13.55;;;;;;;4.90;86.92;102566.47;5073825;28;20044;-61
2021/11/06 05:41:52;;;;;;;31.17;13.05;;;;;;;4.89;86.52;102559.50;5072885;28;20050;-61
2021/11/06 05:44:19;;;;;;;33.55;13.98;;;;;;;4.88;86.64;102563.06;5072314;28;20044;-61
2021/11/06 05:46:46;;;;;;;33.90;13.85;;;;;;;4.88;87.14;102563.91;5072333;28;20040;-64
2021/11/06 05:49:12;;;;;;;32.88;14.07;;;;;;;4.89;86.79;102575.28;5073775;28;20048;-61
2021/11/06 05:51:39;;;;;;;34.08;14.85;;;;;;;4.90;86.79;102574.38;5072634;28;20051;-61
2021/11/06 05:54:07;;;;;;;34.28;15.50;;;;;;;4.84;86.50;102562.34;5073496;28;20063;-62
2021/11/06 05:56:34;;;;;;;31.95;15.38;;;;;;;4.89;86.60;102570.84;5072145;28;20044;-61
2021/11/06 05:59:01;;;;;;;33.58;15.07;;;;;;;4.88;86.83;102563.06;5072377;28;20063;-61
2021/11/06 06:01:28;;;;;;;30.73;15.88;;;;;;;4.89;86.58;102567.38;5065279;28;20037;-62
2021/11/06 06:03:55;;;;;;;36.50;15.70;;;;;;;4.89;87.00;102565.59;5059530;28;20064;-61
2021/11/06 06:06:21;;;;;;;37.50;16.65;;;;;;;4.90;86.83;102561.22;5055891;28;20043;-61
2021/11/06 06:08:49;;;;;;;38.63;15.48;;;;;;;4.88;86.75;102565.69;5072989;28;20064;-61
2021/11/06 06:11:16;;;;;;;37.95;15.13;;;;;;;4.85;86.41;102568.47;5069728;28;20043;-62
2021/11/06 06:13:43;;;;;;;34.90;16.08;;;;;;;4.83;86.88;102573.78;5061356;28;20436;-61
2021/11/06 06:16:09;;;;;;;35.67;15.95;;;;;;;4.87;86.66;102577.13;5072263;28;20048;-61
2021/11/06 06:18:36;;;;;;;35.40;16.50;;;;;;;4.82;86.62;102574.72;5071480;28;20051;-61
2021/11/06 06:21:03;;;;;;;34.95;16.60;;;;;;;4.84;87.13;102582.50;5059262;28;20490;-61
2021/11/06 06:23:30;;;;;;;32.72;15.75;;;;;;;4.84;86.66;102587.78;5070420;28;20048;-61
2021/11/06 06:25:57;;;;;;;42.35;16.85;;;;;;;4.82;86.68;102593.13;5054392;28;20049;-61
2021/11/06 06:28:23;;;;;;;39.13;17.02;;;;;;;4.83;86.85;102601.88;5072634;28;20053;-61
2021/11/06 06:30:50;;;;;;;39.17;16.58;;;;;;;4.85;87.01;102603.50;5072544;28;20041;-61
2021/11/06 06:33:17;;;;;;;36.53;17.20;;;;;;;4.81;86.89;102599.31;5070359;28;20405;-62
2021/11/06 06:35:43;;;;;;;40.25;16.90;;;;;;;4.86;86.56;102605.22;5072608;28;20501;-61
2021/11/06 06:38:11;;;;;;;37.53;16.77;;;;;;;4.83;86.66;102599.25;5054985;28;20418;-61
2021/11/06 06:40:38;;;;;;;39.10;16.83;;;;;;;4.84;86.96;102607.06;5073021;28;20049;-61
2021/11/06 06:43:05;;;;;;;37.15;16.10;;;;;;;4.86;87.01;102599.06;5072632;28;20471;-62
2021/11/06 06:45:33;;;;;;;40.53;17.48;;;;;;;4.89;86.70;102604.19;5072476;28;20044;-61
2021/11/06 06:47:59;;;;;;;50.65;17.77;;;;;;;4.93;86.67;102608.38;5072900;28;20045;-61
2021/11/06 06:50:26;;;;;;;38.28;17.20;;;;;;;4.95;86.98;102598.66;5072481;28;20047;-61
2021/11/06 06:52:53;;;;;;;39.45;18.38;;;;;;;4.97;86.55;102599.44;5072498;28;20519;-61
2021/11/06 06:55:20;;;;;;;41.83;17.63;;;;;;;4.97;87.26;102600.28;5072448;28;20041;-61
2021/11/06 06:57:48;;;;;;;42.40;17.85;;;;;;;4.99;87.58;102611.59;5072665;28;20041;-61
2021/11/06 07:00:16;;;;;;;46.17;17.98;;;;;;;5.05;86.95;102607.81;5072536;28;20545;-61
2021/11/06 07:02:43;;;;;;;43.22;18.13;;;;;;;5.08;87.14;102604.22;5072253;28;20048;-61
2021/11/06 07:05:10;;;;;;;41.78;17.50;;;;;;;5.13;87.09;102602.19;5069519;28;20059;-61
2021/11/06 07:07:37;;;;;;;40.88;18.77;;;;;;;5.10;87.07;102599.72;5072193;28;20069;-61
2021/11/06 07:10:05;;;;;;;38.92;17.65;;;;;;;5.18;86.56;102597.56;5072482;28;20040;-61
2021/11/06 07:12:33;;;;;;;41.45;18.27;;;;;;;5.21;87.38;102596.56;5071006;28;20085;-61
2021/11/06 07:15:00;;;;;;;37.20;17.85;;;;;;;5.26;86.90;102592.78;5072043;28;20498;-61
2021/11/06 07:17:27;;;;;;;39.83;18.23;;;;;;;5.24;86.84;102586.75;5072279;28;20064;-61
2021/11/06 07:19:53;;;;;;;43.78;18.85;;;;;;;5.36;86.35;102603.72;5072267;28;20456;-61
2021/11/06 07:22:20;;;;;;;41.30;18.10;;;;;;;5.43;85.96;102614.81;5072168;28;20048;-61
2021/11/06 07:24:47;;;;;;;35.25;17.30;;;;;;;5.43;86.13;102610.38;5072113;28;20048;-61
2021/11/06 07:27:14;;;;;;;45.03;19.08;;;;;;;5.46;86.24;102614.66;5070955;28;20120;-61
2021/11/06 07:29:40;;;;;;;42.58;18.17;;;;;;;5.56;86.00;102610.63;5072151;28;20041;-61
2021/11/06 07:32:07;;;;;;;35.38;17.50;;;;;;;5.61;85.50;102611.28;5070158;28;20051;-61
2021/11/06 07:34:34;;;;;;;36.15;17.38;;;;;;;5.66;85.79;102611.91;5070725;28;20045;-61
2021/11/06 07:37:01;;;;;;;43.92;17.95;;;;;;;5.69;85.37;102606.47;5072057;28;20497;-61
2021/11/06 07:39:28;;;;;;;39.85;18.35;;;;;;;5.73;85.68;102608.03;5072547;28;20048;-61
2021/11/06 07:41:56;;;;;;;37.13;17.05;;;;;;;5.80;85.75;102615.63;5072249;28;20068;-61
2021/11/06 07:44:23;;;;;;;34.78;16.95;;;;;;;5.84;85.48;102627.69;5072216;28;20048;-61
2021/11/06 07:46:51;;;;;;;35.50;16.55;;;;;;;5.91;84.45;102635.22;5075708;28;20127;-61
2021/11/06 07:49:18;;;;;;;37.20;17.65;;;;;;;5.96;84.66;102633.22;5075499;28;20105;-62
2021/11/06 07:51:45;;;;;;;35.95;16.63;;;;;;;5.99;84.44;102629.59;5076110;28;20055;-62
2021/11/06 07:54:12;;;;;;;35.78;16.27;;;;;;;6.04;84.15;102624.06;5074495;28;20036;-61
2021/11/06 07:56:39;;;;;;;40.10;16.90;;;;;;;6.04;84.06;102631.97;5074502;28;20050;-61
2021/11/06 07:59:06;;;;;;;35.42;17.75;;;;;;;6.15;84.24;102632.31;5058074;28;20052;-62
2021/11/06 08:01:33;;;;;;;34.13;17.80;;;;;;;6.13;83.82;102628.88;5075266;28;20049;-62
2021/11/06 08:04:00;;;;;;;34.47;15.77;;;;;;;6.20;84.20;102626.78;5072371;28;20048;-61
2021/11/06 08:06:27;;;;;;;30.35;15.65;;;;;;;6.25;83.62;102630.03;5075395;28;20580;-61
2021/11/06 08:08:54;;;;;;;39.58;17.33;;;;;;;6.30;84.13;102622.75;5075606;28;20044;-62
2021/11/06 08:11:20;;;;;;;30.60;15.90;;;;;;;6.42;82.30;102619.47;5075675;28;20094;-61
2021/11/06 08:13:47;;;;;;;35.67;16.73;;;;;;;6.31;82.42;102612.13;5075297;28;20045;-61
2021/11/06 08:16:14;;;;;;;33.35;16.80;;;;;;;6.31;83.52;102614.78;5073934;28;20585;-61
2021/11/06 08:18:41;;;;;;;34.88;16.20;;;;;;;6.35;84.14;102620.72;5075302;28;20041;-61
2021/11/06 08:21:07;;;;;;;35.45;17.05;;;;;;;6.39;84.01;102624.06;5075407;28;20041;-62
2021/11/06 08:23:34;;;;;;;42.00;15.10;;;;;;;6.44;83.79;102616.72;5075163;28;20055;-61
2021/11/06 08:26:01;;;;;;;31.35;14.95;;;;;;;6.49;83.18;102610.31;5065952;28;20497;-61
2021/11/06 08:28:28;;;;;;;33.08;15.48;;;;;;;6.58;83.37;102598.41;5071340;28;20502;-62
2021/11/06 08:30:55;;;;;;;31.10;15.30;;;;;;;6.61;83.93;102606.16;5071948;28;20106;-62
2021/11/06 08:33:22;;;;;;;30.90;14.18;;;;;;;6.71;82.31;102606.50;5073882;28;20048;-62
2021/11/06 08:35:50;;;;;;;29.33;13.93;;;;;;;6.86;81.23;102604.84;5028837;28;20055;-62
2021/11/06 08:38:17;;;;;;;29.92;13.30;;;;;;;6.94;80.93;102604.41;5073655;28;20056;-62
2021/11/06 08:40:44;;;;;;;31.35;13.05;;;;;;;6.92;80.84;102600.03;5074679;28;20040;-62
2021/11/06 08:43:12;;;;;;;26.73;12.32;;;;;;;7.20;79.49;102603.78;5074847;28;20044;-62
2021/11/06 08:45:39;;;;;;;30.77;12.57;;;;;;;7.13;79.38;102602.44;5074431;28;20519;-62
2021/11/06 08:48:06;;;;;;;28.40;13.13;;;;;;;7.18;80.23;102604.81;5075255;28;20128;-62
2021/11/06 08:50:34;;;;;;;24.83;12.93;;;;;;;7.26;80.31;102595.53;5073346;28;20045;-63
2021/11/06 08:53:01;;;;;;;28.23;13.13;;;;;;;7.35;79.40;102598.56;5074511;28;20048;-62
2021/11/06 08:55:28;;;;;;;24.55;11.07;;;;;;;7.40;79.05;102607.09;5069367;28;20037;-61
2021/11/06 08:57:55;;;;;;;27.30;10.98;;;;;;;7.49;77.83;102603.91;5065096;28;20033;-62
2021/11/06 09:00:34;;;;;;;21.52;11.30;;;;;;;7.55;78.58;102603.56;5053026;28;20083;-61
2021/11/06 09:03:04;;;;;;;19.35;9.93;;;;;;;7.71;76.65;102605.31;5055975;28;20073;-62
2021/11/06 09:05:31;;;;;;;20.95;10.38;;;;;;;7.69;77.06;102602.75;5067372;28;20037;-61
2021/11/06 09:08:07;;;;;;;29.17;9.75;;;;;;;7.74;77.75;102602.50;5060591;28;20456;-62
2021/11/06 09:10:34;;;;;;;21.67;9.40;;;;;;;7.97;75.34;102595.88;5070346;28;20040;-61
2021/11/06 09:13:02;;;;;;;20.50;9.18;;;;;;;8.01;74.84;102595.56;5080336;28;20120;-63
2021/11/06 09:15:29;;;;;;;19.77;9.02;;;;;;;8.20;74.78;102589.16;5067437;28;20070;-62
2021/11/06 09:17:56;;;;;;;20.25;8.88;;;;;;;8.26;73.24;102594.94;5059131;28;20493;-61
2021/11/06 09:20:23;;;;;;;17.35;7.90;;;;;;;8.19;73.93;102587.47;5073989;28;20052;-61
2021/11/06 09:22:51;;;;;;;20.88;8.90;;;;;;;8.10;74.09;102588.03;5073558;28;20051;-61
2021/11/06 09:25:18;;;;;;;18.27;8.63;;;;;;;8.21;73.52;102593.53;5073518;28;20044;-61
2021/11/06 09:27:45;;;;;;;16.67;7.78;;;;;;;8.17;74.13;102594.66;5073383;28;20041;-61
2021/11/06 09:30:13;;;;;;;15.02;7.32;;;;;;;8.48;73.78;102592.78;5073704;28;20060;-61
2021/11/06 09:32:41;;;;;;;25.67;8.15;;;;;;;8.58;72.37;102594.75;5073566;28;20059;-62
2021/11/06 09:35:09;;;;;;;19.50;7.63;;;;;;;8.64;72.42;102596.16;5071807;28;20048;-62
2021/11/06 09:37:36;;;;;;;16.75;7.47;;;;;;;8.75;73.72;102609.59;5072391;28;20044;-62
2021/11/06 09:40:08;;;;;;;18.67;7.82;;;;;;;8.68;73.30;102599.47;5073851;28;20037;-62
2021/11/06 09:42:36;;;;;;;18.83;8.20;;;;;;;8.86;74.34;102601.00;5072760;28;20040;-62
2021/11/06 09:45:05;;;;;;;21.30;7.40;;;;;;;9.00;71.50;102606.25;5072604;28;20423;-62
2021/11/06 09:47:32;;;;;;;17.17;7.28;;;;;;;9.03;73.09;102599.91;5073371;28;20037;-62
2021/11/06 09:50:00;;;;;;;19.88;7.72;;;;;;;9.12;71.78;102606.41;5073190;28;20127;-62
2021/11/06 09:52:27;;;;;;;13.95;6.50;;;;;;;9.06;71.42;102602.38;5073481;28;20047;-62
2021/11/06 09:54:53;;;;;;;16.30;7.05;;;;;;;9.03;70.81;102600.75;5073166;28;20041;-62
2021/11/06 09:57:20;;;;;;;16.02;7.18;;;;;;;9.18;70.86;102598.91;5073387;28;20555;-62
2021/11/06 09:59:47;;;;;;;14.20;7.03;;;;;;;9.03;72.76;102598.09;5069533;28;20041;-62
2021/11/06 10:02:14;;;;;;;27.77;7.78;;;;;;;9.08;73.63;102600.47;5062564;28;20049;-62
2021/11/06 10:04:42;;;;;;;17.70;6.95;;;;;;;9.11;74.43;102594.94;5050739;28;20041;-62
2021/11/06 10:07:19;;;;;;;15.38;7.32;;;;;;;9.23;71.92;102590.66;5060822;28;20064;-63
2021/11/06 10:10:10;;;;;;;13.90;6.93;;;;;;;9.34;71.52;102593.47;5074694;28;20040;-63
2021/11/06 10:12:57;;;;;;;14.38;6.22;;;;;;;9.45;72.67;102576.84;5058065;28;20037;-62
2021/11/06 10:15:26;;;;;;;48.28;7.10;;;;;;;9.55;72.15;102580.59;5070179;28;20063;-61
2021/11/06 10:17:52;;;;;;;18.58;6.60;;;;;;;9.56;71.35;102582.28;5050895;28;20112;-62
2021/11/06 10:20:24;;;;;;;19.20;6.65;;;;;;;9.61;71.02;102576.69;5066042;28;20040;-62
2021/11/06 10:22:53;;;;;;;15.50;6.13;;;;;;;9.66;71.15;102571.06;5066402;28;20050;-62
2021/11/06 10:25:21;;;;;;;16.00;6.03;;;;;;;9.64;70.61;102575.63;5071502;28;20098;-62
2021/11/06 10:27:51;;;;;;;16.83;6.35;;;;;;;9.83;69.35;102572.59;5072605;28;20048;-62
2021/11/06 10:30:23;;;;;;;16.58;6.55;;;;;;;10.02;68.78;102570.34;5080580;28;20105;-62
2021/11/06 10:35:44;;;;;;;17.23;7.25;;;;;;;10.65;69.29;102565.13;5110181;27;20178;-61
2021/11/06 10:38:28;;;;;;;17.88;6.68;;;;;;;10.94;66.18;102557.72;5052281;28;20126;-61
2021/11/06 10:41:01;;;;;;;17.58;5.93;;;;;;;11.31;66.57;102562.97;5053415;28;20048;-61
2021/11/06 10:43:35;;;;;;;14.70;5.88;;;;;;;11.72;64.88;102554.53;5089514;28;20048;-63
2021/11/06 10:46:10;;;;;;;13.38;6.13;;;;;;;12.09;62.07;102548.19;5089249;28;20063;-62
2021/11/06 10:48:37;;;;;;;13.73;6.43;;;;;;;12.61;61.61;102537.91;5071652;28;20090;-61
2021/11/06 10:51:06;;;;;;;15.45;6.55;;;;;;;14.70;54.80;102543.41;5069974;28;20032;-62
2021/11/06 10:53:46;;;;;;;16.65;6.28;;;;;;;16.40;49.95;102531.19;5051878;28;20045;-62
2021/11/06 10:58:52;;;;;;;12.65;5.13;;;;;;;17.84;45.03;102524.81;5088870;27;20381;-62
2021/11/06 11:01:23;;;;;;;11.73;5.50;;;;;;;18.19;44.36;102533.75;5076585;28;20139;-62
2021/11/06 11:03:59;;;;;;;15.27;5.90;;;;;;;18.37;43.42;102522.91;5072720;28;20512;-63
2021/11/06 11:06:31;;;;;;;13.05;5.47;;;;;;;18.99;42.24;102521.72;5081950;28;20068;-63
2021/11/06 11:08:59;;;;;;;13.80;5.35;;;;;;;18.77;42.51;102524.03;5079785;28;20494;-62
2021/11/06 11:11:32;;;;;;;10.95;5.20;;;;;;;17.70;45.85;102519.16;5080598;28;20383;-62
2021/11/06 11:14:07;;;;;;;12.73;5.60;;;;;;;16.05;49.51;102525.56;5081730;28;20033;-63
2021/11/06 11:16:36;;;;;;;42.22;21.92;;;;;;;15.71;50.37;102514.50;5080501;28;20040;-63
2021/11/06 11:19:10;;;;;;;15.05;4.95;;;;;;;15.19;51.95;102522.91;5087085;28;20056;-63
2021/11/06 11:21:40;;;;;;;15.20;5.00;;;;;;;14.36;55.00;102501.81;5080399;28;20082;-64
2021/11/06 11:24:13;;;;;;;12.13;4.35;;;;;;;14.02;55.04;102509.25;5084889;28;20129;-63
2021/11/06 11:26:44;;;;;;;13.15;4.50;;;;;;;14.33;54.63;102498.56;5079305;28;20102;-62